sensor_id;sensor_type;location;lat;lon;timestamp;pressure;altitude;pressure_sealevel;temperature;humidity
70982;BME280;58640;51.320;9.456;2023-04-08T00:00:53;99776.81;;;4.67;67.66
70982;BME280;58640;51.320;9.456;2023-04-08T00:03:19;99778.50;;;4.68;67.59
70982;BME280;58640;51.320;9.456;2023-04-08T00:05:44;99776.63;;;4.59;68.00
70982;BME280;58640;51.320;9.456;2023-04-08T00:08:10;99784.94;;;4.65;68.24
70982;BME280;58640;51.320;9.456;2023-04-08T00:10:35;99783.28;;;4.64;67.83
70982;BME280;58640;51.320;9.456;2023-04-08T00:13:01;99783.19;;;4.75;67.58
70982;BME280;58640;51.320;9.456;2023-04-08T00:15:26;99778.69;;;4.76;67.58
70982;BME280;58640;51.320;9.456;2023-04-08T00:17:51;99781.75;;;4.71;67.52
70982;BME280;58640;51.320;9.456;2023-04-08T00:20:19;99775.84;;;4.88;66.49
70982;BME280;58640;51.320;9.456;2023-04-08T00:22:44;99780.41;;;4.77;66.79
70982;BME280;58640;51.320;9.456;2023-04-08T00:25:10;99772.47;;;4.45;67.96
70982;BME280;58640;51.320;9.456;2023-04-08T00:27:35;99773.31;;;4.45;68.13
70982;BME280;58640;51.320;9.456;2023-04-08T00:30:00;99774.03;;;4.47;68.01
70982;BME280;58640;51.320;9.456;2023-04-08T00:32:26;99771.38;;;4.47;68.14
70982;BME280;58640;51.320;9.456;2023-04-08T00:34:53;99775.91;;;4.57;67.97
70982;BME280;58640;51.320;9.456;2023-04-08T00:37:18;99775.91;;;4.57;67.97
70982;BME280;58640;51.320;9.456;2023-04-08T00:39:44;99774.56;;;4.62;67.55
70982;BME280;58640;51.320;9.456;2023-04-08T00:42:09;99772.88;;;4.61;66.80
70982;BME280;58640;51.320;9.456;2023-04-08T00:44:34;99779.16;;;4.60;67.02
70982;BME280;58640;51.320;9.456;2023-04-08T00:47:00;99775.47;;;4.72;66.19
70982;BME280;58640;51.320;9.456;2023-04-08T00:49:25;99776.94;;;4.86;65.82
70982;BME280;58640;51.320;9.456;2023-04-08T00:51:53;99769.97;;;4.94;65.22
70982;BME280;58640;51.320;9.456;2023-04-08T00:54:18;99770.75;;;4.85;66.24
70982;BME280;58640;51.320;9.456;2023-04-08T00:56:43;99772.59;;;4.85;65.87
70982;BME280;58640;51.320;9.456;2023-04-08T00:59:09;99776.88;;;4.76;66.33
70982;BME280;58640;51.320;9.456;2023-04-08T01:01:55;99765.38;;;4.96;65.10
70982;BME280;58640;51.320;9.456;2023-04-08T01:07:21;99772.19;;;4.89;65.99
70982;BME280;58640;51.320;9.456;2023-04-08T01:09:52;99775.63;;;5.01;65.45
70982;BME280;58640;51.320;9.456;2023-04-08T01:12:25;99772.13;;;5.00;65.46
70982;BME280;58640;51.320;9.456;2023-04-08T01:15:05;99776.31;;;5.03;65.85
70982;BME280;58640;51.320;9.456;2023-04-08T01:17:32;99771.00;;;5.03;66.03
70982;BME280;58640;51.320;9.456;2023-04-08T01:20:00;99771.34;;;5.19;65.32
70982;BME280;58640;51.320;9.456;2023-04-08T01:22:51;99767.59;;;5.21;65.48
70982;BME280;58640;51.320;9.456;2023-04-08T01:25:37;99771.25;;;5.30;64.69
70982;BME280;58640;51.320;9.456;2023-04-08T01:28:06;99769.88;;;5.35;64.70
70982;BME280;58640;51.320;9.456;2023-04-08T01:30:33;99774.09;;;5.38;63.95
70982;BME280;58640;51.320;9.456;2023-04-08T01:33:00;99779.00;;;5.33;64.37
70982;BME280;58640;51.320;9.456;2023-04-08T01:35:26;99772.69;;;5.34;64.49
70982;BME280;58640;51.320;9.456;2023-04-08T01:37:53;99782.22;;;5.36;64.04
70982;BME280;58640;51.320;9.456;2023-04-08T01:40:19;99783.22;;;5.35;64.23
70982;BME280;58640;51.320;9.456;2023-04-08T01:42:47;99778.34;;;5.40;64.40
70982;BME280;58640;51.320;9.456;2023-04-08T01:45:13;99778.03;;;5.34;64.67
70982;BME280;58640;51.320;9.456;2023-04-08T01:47:40;99777.16;;;5.33;64.84
70982;BME280;58640;51.320;9.456;2023-04-08T01:50:06;99785.16;;;5.33;65.09
70982;BME280;58640;51.320;9.456;2023-04-08T01:52:34;99784.63;;;5.39;64.98
70982;BME280;58640;51.320;9.456;2023-04-08T01:55:01;99785.50;;;5.49;64.49
70982;BME280;58640;51.320;9.456;2023-04-08T01:57:27;99782.72;;;5.51;64.46
70982;BME280;58640;51.320;9.456;2023-04-08T01:59:56;99777.94;;;5.54;64.52
70982;BME280;58640;51.320;9.456;2023-04-08T02:02:25;99771.78;;;5.63;63.50
70982;BME280;58640;51.320;9.456;2023-04-08T02:04:52;99775.72;;;5.59;63.46
70982;BME280;58640;51.320;9.456;2023-04-08T02:07:18;99776.56;;;5.50;63.52
70982;BME280;58640;51.320;9.456;2023-04-08T02:09:43;99775.59;;;5.70;62.99
70982;BME280;58640;51.320;9.456;2023-04-08T02:12:09;99768.75;;;5.68;62.82
70982;BME280;58640;51.320;9.456;2023-04-08T02:14:34;99773.94;;;5.79;62.14
70982;BME280;58640;51.320;9.456;2023-04-08T02:17:22;99774.63;;;5.81;61.56
70982;BME280;58640;51.320;9.456;2023-04-08T02:19:53;99782.47;;;5.73;61.91
70982;BME280;58640;51.320;9.456;2023-04-08T02:22:48;99773.66;;;5.72;61.74
70982;BME280;58640;51.320;9.456;2023-04-08T02:25:22;99772.06;;;5.60;62.18
70982;BME280;58640;51.320;9.456;2023-04-08T02:27:49;99776.59;;;5.69;61.97
70982;BME280;58640;51.320;9.456;2023-04-08T02:30:16;99778.16;;;5.81;61.53
70982;BME280;58640;51.320;9.456;2023-04-08T02:32:43;99785.59;;;5.78;61.21
70982;BME280;58640;51.320;9.456;2023-04-08T02:35:11;99781.31;;;5.86;61.15
70982;BME280;58640;51.320;9.456;2023-04-08T02:37:37;99782.00;;;5.88;61.12
70982;BME280;58640;51.320;9.456;2023-04-08T02:40:03;99785.50;;;5.89;61.05
70982;BME280;58640;51.320;9.456;2023-04-08T02:42:28;99776.63;;;5.79;60.58
70982;BME280;58640;51.320;9.456;2023-04-08T02:44:53;99782.41;;;5.84;60.47
70982;BME280;58640;51.320;9.456;2023-04-08T02:47:19;99785.44;;;5.79;60.32
70982;BME280;58640;51.320;9.456;2023-04-08T02:49:45;99786.59;;;5.77;61.28
70982;BME280;58640;51.320;9.456;2023-04-08T02:52:10;99784.19;;;5.74;61.66
70982;BME280;58640;51.320;9.456;2023-04-08T02:54:35;99784.97;;;5.95;60.69
70982;BME280;58640;51.320;9.456;2023-04-08T02:57:01;99791.44;;;6.21;59.32
70982;BME280;58640;51.320;9.456;2023-04-08T02:59:26;99789.19;;;5.97;60.33
70982;BME280;58640;51.320;9.456;2023-04-08T03:01:51;99788.16;;;5.89;60.62
70982;BME280;58640;51.320;9.456;2023-04-08T03:04:17;99792.13;;;5.94;60.57
70982;BME280;58640;51.320;9.456;2023-04-08T03:06:42;99786.00;;;5.73;61.77
70982;BME280;58640;51.320;9.456;2023-04-08T03:09:07;99784.81;;;5.87;61.47
70982;BME280;58640;51.320;9.456;2023-04-08T03:11:33;99783.25;;;5.84;61.57
70982;BME280;58640;51.320;9.456;2023-04-08T03:13:59;99790.03;;;5.88;61.66
70982;BME280;58640;51.320;9.456;2023-04-08T03:16:25;99788.44;;;5.86;61.75
70982;BME280;58640;51.320;9.456;2023-04-08T03:18:50;99790.41;;;5.84;62.52
70982;BME280;58640;51.320;9.456;2023-04-08T03:21:16;99795.16;;;5.80;63.30
70982;BME280;58640;51.320;9.456;2023-04-08T03:23:42;99802.31;;;5.80;62.93
70982;BME280;58640;51.320;9.456;2023-04-08T03:26:07;99801.38;;;5.90;62.57
70982;BME280;58640;51.320;9.456;2023-04-08T03:28:33;99802.25;;;6.01;62.33
70982;BME280;58640;51.320;9.456;2023-04-08T03:30:58;99806.47;;;5.93;63.09
70982;BME280;58640;51.320;9.456;2023-04-08T03:33:25;99802.41;;;5.99;62.76
70982;BME280;58640;51.320;9.456;2023-04-08T03:35:50;99808.16;;;5.94;63.03
70982;BME280;58640;51.320;9.456;2023-04-08T03:38:15;99808.97;;;5.85;63.35
70982;BME280;58640;51.320;9.456;2023-04-08T03:40:41;99810.75;;;5.75;64.09
70982;BME280;58640;51.320;9.456;2023-04-08T03:43:06;99803.84;;;5.73;64.30
70982;BME280;58640;51.320;9.456;2023-04-08T03:45:32;99795.69;;;5.74;64.15
70982;BME280;58640;51.320;9.456;2023-04-08T03:47:58;99793.88;;;5.75;64.55
70982;BME280;58640;51.320;9.456;2023-04-08T03:50:23;99804.59;;;5.84;64.04
70982;BME280;58640;51.320;9.456;2023-04-08T03:52:48;99796.19;;;5.98;63.89
70982;BME280;58640;51.320;9.456;2023-04-08T03:55:14;99799.31;;;6.04;62.72
70982;BME280;58640;51.320;9.456;2023-04-08T03:57:39;99801.53;;;5.89;64.02
70982;BME280;58640;51.320;9.456;2023-04-08T04:00:05;99804.00;;;5.81;64.90
70982;BME280;58640;51.320;9.456;2023-04-08T04:02:31;99800.91;;;5.76;63.32
70982;BME280;58640;51.320;9.456;2023-04-08T04:04:56;99801.56;;;5.59;65.12
70982;BME280;58640;51.320;9.456;2023-04-08T04:07:22;99801.09;;;5.84;63.67
70982;BME280;58640;51.320;9.456;2023-04-08T04:09:47;99809.16;;;5.73;63.61
70982;BME280;58640;51.320;9.456;2023-04-08T04:12:12;99813.09;;;5.69;64.33
70982;BME280;58640;51.320;9.456;2023-04-08T04:14:38;99813.81;;;5.71;64.38
70982;BME280;58640;51.320;9.456;2023-04-08T04:17:03;99818.41;;;5.59;65.29
70982;BME280;58640;51.320;9.456;2023-04-08T04:19:29;99814.75;;;5.60;65.24
70982;BME280;58640;51.320;9.456;2023-04-08T04:21:55;99825.88;;;5.65;64.86
70982;BME280;58640;51.320;9.456;2023-04-08T04:24:21;99821.97;;;5.69;64.65
70982;BME280;58640;51.320;9.456;2023-04-08T04:26:46;99821.41;;;5.75;64.52
70982;BME280;58640;51.320;9.456;2023-04-08T04:29:11;99823.91;;;5.67;65.31
70982;BME280;58640;51.320;9.456;2023-04-08T04:31:36;99829.63;;;5.83;65.28
70982;BME280;58640;51.320;9.456;2023-04-08T04:34:02;99836.00;;;5.71;66.21
70982;BME280;58640;51.320;9.456;2023-04-08T04:36:27;99834.63;;;5.77;66.79
70982;BME280;58640;51.320;9.456;2023-04-08T04:38:53;99835.34;;;5.49;69.61
70982;BME280;58640;51.320;9.456;2023-04-08T04:41:18;99841.63;;;5.38;70.98
70982;BME280;58640;51.320;9.456;2023-04-08T04:43:43;99838.09;;;5.58;70.52
70982;BME280;58640;51.320;9.456;2023-04-08T04:46:09;99844.38;;;5.57;70.36
70982;BME280;58640;51.320;9.456;2023-04-08T04:48:35;99839.78;;;5.69;70.23
70982;BME280;58640;51.320;9.456;2023-04-08T04:51:00;99841.47;;;5.70;70.69
70982;BME280;58640;51.320;9.456;2023-04-08T04:53:27;99843.44;;;5.38;73.13
70982;BME280;58640;51.320;9.456;2023-04-08T04:55:54;99845.16;;;5.39;73.65
70982;BME280;58640;51.320;9.456;2023-04-08T04:58:19;99847.63;;;5.61;72.59
70982;BME280;58640;51.320;9.456;2023-04-08T05:00:45;99856.81;;;5.47;73.84
70982;BME280;58640;51.320;9.456;2023-04-08T05:03:11;99859.25;;;5.30;75.43
70982;BME280;58640;51.320;9.456;2023-04-08T05:05:36;99860.16;;;5.40;74.77
70982;BME280;58640;51.320;9.456;2023-04-08T05:08:02;99851.44;;;5.58;74.47
70982;BME280;58640;51.320;9.456;2023-04-08T05:10:27;99861.16;;;5.69;74.24
70982;BME280;58640;51.320;9.456;2023-04-08T05:12:52;99866.75;;;5.66;75.05
70982;BME280;58640;51.320;9.456;2023-04-08T05:15:18;99856.69;;;5.49;76.14
70982;BME280;58640;51.320;9.456;2023-04-08T05:17:43;99860.78;;;5.53;75.98
70982;BME280;58640;51.320;9.456;2023-04-08T05:20:09;99868.72;;;5.34;77.73
70982;BME280;58640;51.320;9.456;2023-04-08T05:22:34;99864.31;;;5.23;77.72
70982;BME280;58640;51.320;9.456;2023-04-08T05:24:59;99871.28;;;5.45;76.86
70982;BME280;58640;51.320;9.456;2023-04-08T05:27:25;99875.91;;;5.43;77.21
70982;BME280;58640;51.320;9.456;2023-04-08T05:29:51;99868.94;;;5.51;77.33
70982;BME280;58640;51.320;9.456;2023-04-08T05:32:16;99885.34;;;5.47;77.26
70982;BME280;58640;51.320;9.456;2023-04-08T05:34:42;99881.69;;;5.48;77.81
70982;BME280;58640;51.320;9.456;2023-04-08T05:37:07;99867.94;;;5.52;77.55
70982;BME280;58640;51.320;9.456;2023-04-08T05:39:33;99867.72;;;5.35;78.74
70982;BME280;58640;51.320;9.456;2023-04-08T05:41:58;99876.31;;;5.38;78.65
70982;BME280;58640;51.320;9.456;2023-04-08T05:44:23;99878.56;;;5.43;79.11
70982;BME280;58640;51.320;9.456;2023-04-08T05:46:49;99871.91;;;5.58;78.64
70982;BME280;58640;51.320;9.456;2023-04-08T05:49:14;99875.63;;;5.46;79.06
70982;BME280;58640;51.320;9.456;2023-04-08T05:51:41;99881.25;;;5.43;79.16
70982;BME280;58640;51.320;9.456;2023-04-08T05:54:06;99893.53;;;5.55;78.76
70982;BME280;58640;51.320;9.456;2023-04-08T05:56:32;99891.19;;;5.61;78.89
70982;BME280;58640;51.320;9.456;2023-04-08T05:58:57;99890.47;;;5.59;79.60
70982;BME280;58640;51.320;9.456;2023-04-08T06:01:22;99897.03;;;5.55;79.77
70982;BME280;58640;51.320;9.456;2023-04-08T06:03:49;99896.09;;;5.66;79.41
70982;BME280;58640;51.320;9.456;2023-04-08T06:06:14;99902.06;;;5.79;78.57
70982;BME280;58640;51.320;9.456;2023-04-08T06:08:39;99903.44;;;5.73;79.27
70982;BME280;58640;51.320;9.456;2023-04-08T06:11:05;99898.34;;;5.91;78.42
70982;BME280;58640;51.320;9.456;2023-04-08T06:13:31;99910.28;;;5.66;80.52
70982;BME280;58640;51.320;9.456;2023-04-08T06:15:56;99913.09;;;5.85;79.67
70982;BME280;58640;51.320;9.456;2023-04-08T06:18:22;99910.69;;;5.62;80.99
70982;BME280;58640;51.320;9.456;2023-04-08T06:20:47;99913.25;;;5.43;82.91
70982;BME280;58640;51.320;9.456;2023-04-08T06:23:13;99907.91;;;5.73;81.16
70982;BME280;58640;51.320;9.456;2023-04-08T06:25:38;99913.34;;;5.62;82.61
70982;BME280;58640;51.320;9.456;2023-04-08T06:28:04;99917.09;;;5.80;81.97
70982;BME280;58640;51.320;9.456;2023-04-08T06:30:29;99919.00;;;5.68;83.38
70982;BME280;58640;51.320;9.456;2023-04-08T06:32:54;99915.34;;;5.90;82.16
70982;BME280;58640;51.320;9.456;2023-04-08T06:35:20;99911.09;;;5.87;82.81
70982;BME280;58640;51.320;9.456;2023-04-08T06:37:45;99919.59;;;6.02;81.68
70982;BME280;58640;51.320;9.456;2023-04-08T06:40:11;99919.91;;;6.09;82.09
70982;BME280;58640;51.320;9.456;2023-04-08T06:42:36;99925.78;;;6.03;82.48
70982;BME280;58640;51.320;9.456;2023-04-08T06:45:07;99920.44;;;6.03;82.96
70982;BME280;58640;51.320;9.456;2023-04-08T06:47:33;99922.91;;;5.85;83.20
70982;BME280;58640;51.320;9.456;2023-04-08T06:49:58;99919.25;;;5.86;83.88
70982;BME280;58640;51.320;9.456;2023-04-08T06:52:23;99923.69;;;5.76;84.54
70982;BME280;58640;51.320;9.456;2023-04-08T06:54:49;99929.53;;;5.90;83.82
70982;BME280;58640;51.320;9.456;2023-04-08T06:57:14;99932.06;;;5.92;84.56
70982;BME280;58640;51.320;9.456;2023-04-08T06:59:42;99939.78;;;5.85;85.24
70982;BME280;58640;51.320;9.456;2023-04-08T07:02:07;99947.06;;;5.83;85.57
70982;BME280;58640;51.320;9.456;2023-04-08T07:04:32;99945.72;;;5.98;84.65
70982;BME280;58640;51.320;9.456;2023-04-08T07:06:58;99940.91;;;5.92;85.81
70982;BME280;58640;51.320;9.456;2023-04-08T07:09:23;99948.78;;;5.94;86.20
70982;BME280;58640;51.320;9.456;2023-04-08T07:11:49;99948.94;;;5.92;86.47
70982;BME280;58640;51.320;9.456;2023-04-08T07:14:14;99940.97;;;6.02;86.32
70982;BME280;58640;51.320;9.456;2023-04-08T07:16:39;99950.13;;;6.09;86.09
70982;BME280;58640;51.320;9.456;2023-04-08T07:19:05;99954.63;;;6.09;86.28
70982;BME280;58640;51.320;9.456;2023-04-08T07:21:30;99956.47;;;6.18;86.03
70982;BME280;58640;51.320;9.456;2023-04-08T07:23:56;99958.50;;;6.25;85.47
70982;BME280;58640;51.320;9.456;2023-04-08T07:26:21;99962.53;;;6.20;85.87
70982;BME280;58640;51.320;9.456;2023-04-08T07:28:47;99958.19;;;6.19;85.89
70982;BME280;58640;51.320;9.456;2023-04-08T07:31:14;99970.03;;;6.35;85.89
70982;BME280;58640;51.320;9.456;2023-04-08T07:33:40;99962.16;;;6.34;86.90
70982;BME280;58640;51.320;9.456;2023-04-08T07:36:07;99968.13;;;6.66;84.66
70982;BME280;58640;51.320;9.456;2023-04-08T07:38:33;99973.91;;;6.71;84.17
70982;BME280;58640;51.320;9.456;2023-04-08T07:40:58;99978.84;;;6.94;83.48
70982;BME280;58640;51.320;9.456;2023-04-08T07:43:24;99978.72;;;7.05;82.90
70982;BME280;58640;51.320;9.456;2023-04-08T07:45:49;99979.72;;;7.04;82.96
70982;BME280;58640;51.320;9.456;2023-04-08T07:48:15;99980.28;;;7.17;81.94
70982;BME280;58640;51.320;9.456;2023-04-08T07:50:40;99984.22;;;6.94;82.22
70982;BME280;58640;51.320;9.456;2023-04-08T07:53:06;99991.25;;;6.95;82.98
70982;BME280;58640;51.320;9.456;2023-04-08T07:55:33;99995.16;;;6.82;83.58
70982;BME280;58640;51.320;9.456;2023-04-08T07:57:59;100002.06;;;6.65;84.25
70982;BME280;58640;51.320;9.456;2023-04-08T08:00:24;100003.19;;;6.72;84.10
70982;BME280;58640;51.320;9.456;2023-04-08T08:02:50;100007.66;;;6.72;83.70
70982;BME280;58640;51.320;9.456;2023-04-08T08:05:15;100003.47;;;6.69;83.93
70982;BME280;58640;51.320;9.456;2023-04-08T08:07:40;100013.44;;;6.67;83.71
70982;BME280;58640;51.320;9.456;2023-04-08T08:10:06;100000.38;;;6.74;84.03
70982;BME280;58640;51.320;9.456;2023-04-08T08:12:32;100012.94;;;6.83;83.63
70982;BME280;58640;51.320;9.456;2023-04-08T08:14:57;100008.78;;;6.60;84.20
70982;BME280;58640;51.320;9.456;2023-04-08T08:17:23;100009.97;;;6.76;83.65
70982;BME280;58640;51.320;9.456;2023-04-08T08:19:49;100007.16;;;6.78;83.34
70982;BME280;58640;51.320;9.456;2023-04-08T08:22:15;100014.31;;;6.87;83.55
70982;BME280;58640;51.320;9.456;2023-04-08T08:24:40;100010.50;;;6.80;84.66
70982;BME280;58640;51.320;9.456;2023-04-08T08:27:09;100014.47;;;6.95;83.74
70982;BME280;58640;51.320;9.456;2023-04-08T08:29:34;100016.31;;;7.13;82.52
70982;BME280;58640;51.320;9.456;2023-04-08T08:32:01;100018.66;;;6.78;83.74
70982;BME280;58640;51.320;9.456;2023-04-08T08:34:27;100016.09;;;6.67;85.15
70982;BME280;58640;51.320;9.456;2023-04-08T08:36:52;100018.53;;;6.89;83.98
70982;BME280;58640;51.320;9.456;2023-04-08T08:39:18;100027.00;;;6.94;83.21
70982;BME280;58640;51.320;9.456;2023-04-08T08:41:43;100016.88;;;6.98;83.45
70982;BME280;58640;51.320;9.456;2023-04-08T08:44:09;100021.81;;;7.21;81.86
70982;BME280;58640;51.320;9.456;2023-04-08T08:46:34;100022.66;;;7.03;83.02
70982;BME280;58640;51.320;9.456;2023-04-08T08:49:00;100031.41;;;7.05;83.55
70982;BME280;58640;51.320;9.456;2023-04-08T08:51:25;100033.78;;;7.08;83.16
70982;BME280;58640;51.320;9.456;2023-04-08T08:53:52;100036.31;;;7.19;82.64
70982;BME280;58640;51.320;9.456;2023-04-08T08:56:17;100041.81;;;7.17;82.54
70982;BME280;58640;51.320;9.456;2023-04-08T08:58:42;100051.09;;;7.23;82.47
70982;BME280;58640;51.320;9.456;2023-04-08T09:01:43;100054.88;;;7.01;83.89
70982;BME280;58640;51.320;9.456;2023-04-08T09:04:15;100051.38;;;7.20;82.90
70982;BME280;58640;51.320;9.456;2023-04-08T09:06:42;100055.75;;;7.02;84.21
70982;BME280;58640;51.320;9.456;2023-04-08T09:09:08;100065.91;;;7.17;82.74
70982;BME280;58640;51.320;9.456;2023-04-08T09:11:41;100067.28;;;7.12;83.26
70982;BME280;58640;51.320;9.456;2023-04-08T09:14:36;100065.34;;;7.23;81.49
70982;BME280;58640;51.320;9.456;2023-04-08T09:17:01;100065.91;;;7.36;81.27
70982;BME280;58640;51.320;9.456;2023-04-08T09:19:26;100065.47;;;7.22;81.80
70982;BME280;58640;51.320;9.456;2023-04-08T09:22:07;100063.09;;;7.28;81.85
70982;BME280;58640;51.320;9.456;2023-04-08T09:24:33;100068.53;;;6.98;82.93
70982;BME280;58640;51.320;9.456;2023-04-08T09:26:58;100067.41;;;7.01;82.98
70982;BME280;58640;51.320;9.456;2023-04-08T09:29:25;100071.22;;;6.98;82.97
70982;BME280;58640;51.320;9.456;2023-04-08T09:31:56;100065.91;;;7.17;82.43
70982;BME280;58640;51.320;9.456;2023-04-08T09:34:21;100068.16;;;7.31;81.94
70982;BME280;58640;51.320;9.456;2023-04-08T09:36:51;100072.09;;;7.18;82.53
70982;BME280;58640;51.320;9.456;2023-04-08T09:39:17;100082.69;;;7.38;81.35
70982;BME280;58640;51.320;9.456;2023-04-08T09:41:42;100073.66;;;7.49;80.76
70982;BME280;58640;51.320;9.456;2023-04-08T09:44:11;100078.72;;;7.62;79.88
70982;BME280;58640;51.320;9.456;2023-04-08T09:54:30;100088.03;;;7.86;79.27
70982;BME280;58640;51.320;9.456;2023-04-08T09:57:07;100097.03;;;7.85;79.61
70982;BME280;58640;51.320;9.456;2023-04-08T09:59:35;100087.13;;;8.05;79.13
70982;BME280;58640;51.320;9.456;2023-04-08T10:02:08;100089.22;;;8.20;78.85
70982;BME280;58640;51.320;9.456;2023-04-08T10:04:38;100086.16;;;8.25;77.92
70982;BME280;58640;51.320;9.456;2023-04-08T10:07:07;100091.50;;;8.15;78.01
70982;BME280;58640;51.320;9.456;2023-04-08T10:09:33;100085.00;;;8.08;79.21
70982;BME280;58640;51.320;9.456;2023-04-08T10:12:00;100099.94;;;8.20;78.04
70982;BME280;58640;51.320;9.456;2023-04-08T10:14:25;100090.09;;;8.11;79.43
70982;BME280;58640;51.320;9.456;2023-04-08T10:19:51;100091.22;;;8.09;79.55
70982;BME280;58640;51.320;9.456;2023-04-08T10:27:41;100091.34;;;8.17;79.28
70982;BME280;58640;51.320;9.456;2023-04-08T10:32:54;100091.75;;;8.12;78.39
70982;BME280;58640;51.320;9.456;2023-04-08T10:37:58;100094.72;;;8.19;78.41
70982;BME280;58640;51.320;9.456;2023-04-08T10:40:24;100098.97;;;8.12;78.54
70982;BME280;58640;51.320;9.456;2023-04-08T10:45:21;100083.56;;;8.42;78.18
70982;BME280;58640;51.320;9.456;2023-04-08T10:47:46;100087.31;;;7.75;80.52
70982;BME280;58640;51.320;9.456;2023-04-08T10:50:13;100092.25;;;7.70;81.12
70982;BME280;58640;51.320;9.456;2023-04-08T10:52:53;100097.59;;;7.79;80.39
70982;BME280;58640;51.320;9.456;2023-04-08T10:55:25;100093.94;;;7.61;81.44
70982;BME280;58640;51.320;9.456;2023-04-08T10:57:51;100097.03;;;7.66;81.90
70982;BME280;58640;51.320;9.456;2023-04-08T11:00:17;100102.22;;;7.96;80.63
70982;BME280;58640;51.320;9.456;2023-04-08T11:02:43;100101.84;;;7.72;81.55
70982;BME280;58640;51.320;9.456;2023-04-08T11:05:11;100110.97;;;7.89;81.16
70982;BME280;58640;51.320;9.456;2023-04-08T11:07:42;100106.19;;;7.92;80.72
70982;BME280;58640;51.320;9.456;2023-04-08T11:10:08;100107.19;;;7.91;81.02
70982;BME280;58640;51.320;9.456;2023-04-08T11:12:34;100110.53;;;8.03;80.85
70982;BME280;58640;51.320;9.456;2023-04-08T11:15:02;100113.22;;;7.93;81.03
70982;BME280;58640;51.320;9.456;2023-04-08T11:17:29;100116.63;;;7.95;80.79
70982;BME280;58640;51.320;9.456;2023-04-08T11:19:55;100115.63;;;7.87;81.92
70982;BME280;58640;51.320;9.456;2023-04-08T11:22:21;100109.72;;;8.02;80.72
70982;BME280;58640;51.320;9.456;2023-04-08T11:24:47;100112.38;;;8.12;80.92
70982;BME280;58640;51.320;9.456;2023-04-08T11:27:13;100107.56;;;7.96;81.75
70982;BME280;58640;51.320;9.456;2023-04-08T11:29:40;100110.81;;;8.09;81.01
70982;BME280;58640;51.320;9.456;2023-04-08T11:32:05;100109.56;;;8.04;81.39
70982;BME280;58640;51.320;9.456;2023-04-08T11:34:33;100109.09;;;8.37;80.59
70982;BME280;58640;51.320;9.456;2023-04-08T11:37:03;100104.97;;;8.52;79.91
70982;BME280;58640;51.320;9.456;2023-04-08T11:39:28;100104.25;;;8.50;79.87
70982;BME280;58640;51.320;9.456;2023-04-08T11:41:53;100101.00;;;8.83;78.61
70982;BME280;58640;51.320;9.456;2023-04-08T11:44:19;100095.91;;;9.34;77.00
70982;BME280;58640;51.320;9.456;2023-04-08T11:46:53;100100.59;;;9.67;74.38
70982;BME280;58640;51.320;9.456;2023-04-08T11:49:19;100095.28;;;9.75;74.68
70982;BME280;58640;51.320;9.456;2023-04-08T11:51:54;100091.19;;;10.24;73.17
70982;BME280;58640;51.320;9.456;2023-04-08T11:54:31;100091.31;;;9.79;74.07
70982;BME280;58640;51.320;9.456;2023-04-08T11:56:57;100091.53;;;9.86;73.83
70982;BME280;58640;51.320;9.456;2023-04-08T11:59:23;100088.88;;;9.51;75.26
70982;BME280;58640;51.320;9.456;2023-04-08T12:01:50;100090.94;;;9.74;75.24
70982;BME280;58640;51.320;9.456;2023-04-08T12:04:16;100096.53;;;9.81;75.30
70982;BME280;58640;51.320;9.456;2023-04-08T12:06:41;100088.84;;;9.86;73.61
70982;BME280;58640;51.320;9.456;2023-04-08T12:09:07;100102.72;;;9.81;73.94
70982;BME280;58640;51.320;9.456;2023-04-08T12:11:33;100095.44;;;9.74;74.78
70982;BME280;58640;51.320;9.456;2023-04-08T12:13:58;100096.06;;;9.50;75.58
70982;BME280;58640;51.320;9.456;2023-04-08T12:16:24;100106.81;;;9.68;74.65
70982;BME280;58640;51.320;9.456;2023-04-08T12:18:49;100107.81;;;10.02;73.65
70982;BME280;58640;51.320;9.456;2023-04-08T12:21:15;100111.88;;;9.71;75.98
70982;BME280;58640;51.320;9.456;2023-04-08T12:23:40;100102.13;;;9.87;74.73
70982;BME280;58640;51.320;9.456;2023-04-08T12:26:05;100094.75;;;9.89;73.88
70982;BME280;58640;51.320;9.456;2023-04-08T12:28:32;100103.28;;;9.85;74.61
70982;BME280;58640;51.320;9.456;2023-04-08T12:30:58;100100.19;;;9.80;74.10
70982;BME280;58640;51.320;9.456;2023-04-08T12:33:24;100101.75;;;9.65;74.58
70982;BME280;58640;51.320;9.456;2023-04-08T12:35:49;100102.44;;;9.84;73.85
70982;BME280;58640;51.320;9.456;2023-04-08T12:38:15;100103.56;;;9.99;74.04
70982;BME280;58640;51.320;9.456;2023-04-08T12:40:40;100103.91;;;9.79;74.20
70982;BME280;58640;51.320;9.456;2023-04-08T12:43:06;100107.13;;;9.65;75.26
70982;BME280;58640;51.320;9.456;2023-04-08T12:45:31;100115.56;;;9.70;75.56
70982;BME280;58640;51.320;9.456;2023-04-08T12:47:56;100104.84;;;9.70;74.93
70982;BME280;58640;51.320;9.456;2023-04-08T12:50:22;100107.91;;;9.75;74.72
70982;BME280;58640;51.320;9.456;2023-04-08T12:52:47;100109.34;;;9.52;76.73
70982;BME280;58640;51.320;9.456;2023-04-08T12:55:13;100111.09;;;9.61;76.58
70982;BME280;58640;51.320;9.456;2023-04-08T12:57:38;100115.72;;;9.51;76.37
70982;BME280;58640;51.320;9.456;2023-04-08T13:00:04;100117.00;;;9.47;76.63
70982;BME280;58640;51.320;9.456;2023-04-08T13:02:29;100104.06;;;9.60;76.49
70982;BME280;58640;51.320;9.456;2023-04-08T13:04:55;100111.00;;;9.88;75.26
70982;BME280;58640;51.320;9.456;2023-04-08T13:07:20;100105.34;;;10.34;73.40
70982;BME280;58640;51.320;9.456;2023-04-08T13:09:45;100103.69;;;10.33;73.56
70982;BME280;58640;51.320;9.456;2023-04-08T13:12:11;100101.94;;;10.50;73.42
70982;BME280;58640;51.320;9.456;2023-04-08T13:14:37;100100.38;;;10.73;72.11
70982;BME280;58640;51.320;9.456;2023-04-08T13:17:03;100105.56;;;10.66;71.79
70982;BME280;58640;51.320;9.456;2023-04-08T13:19:28;100103.19;;;10.38;72.94
70982;BME280;58640;51.320;9.456;2023-04-08T13:21:54;100103.31;;;10.28;73.79
70982;BME280;58640;51.320;9.456;2023-04-08T13:24:19;100104.84;;;10.90;71.33
70982;BME280;58640;51.320;9.456;2023-04-08T13:26:44;100094.56;;;10.93;70.38
70982;BME280;58640;51.320;9.456;2023-04-08T13:29:10;100104.03;;;10.64;72.36
70982;BME280;58640;51.320;9.456;2023-04-08T13:31:35;100097.06;;;10.87;71.09